Terminal Aerodrome Forecast
Issued by NWS

Home | Current Version | Previous Version | Text Only | Print | Product List | Glossary On
Versions: 1 2 3 4 5 6 7 8 9 10 11 12
000
FTUS43 KILX 311133
TAFDEC
TAF
KDEC 311133Z 3112/0112 19003KT 5SM BR SKC
      TEMPO 3112/3114 2SM BR
     FM311600 20008KT P6SM SCT030
     FM010100 19004KT P6SM SKC
      TEMPO 0108/0112 4SM BR=

USA.gov is the U.S. government's official web portal to all federal, state and local government web resources and services.